Salina, KS

10:32 PM CDT on April 30, 2017 (GMT -0500)
Old Salina | | Change Station

Elev 1280 ft 38.84 °N, 97.61 °W | Updated 16 seconds ago

Overcast
Overcast
39.5 °F
Feels Like 40 °F
N
3.0
Wind Variable Wind from SSW

Today
High -- | Low -- °F
--% Chance of Precip.
Yesterday
High -- | Low -- °F
Precip. -- in
Pressure 29.50 in
Visibility 10.0 miles
Clouds Scattered Clouds 1000 ft
Mostly Cloudy 1400 ft
Overcast 3000 ft
Windchill 40 °F
Dew Point 39 °F
Humidity 98%
Rainfall 0.79 in
Snow Depth Not available.
6:33 AM 8:22 PM
Waxing Crescent, 28% visible
SPECI KSLN 010304Z 32025G30KT 10SM -RA SCT010 BKN014 OVC030 05/03 A2950 RMK AO2 PK WND 31030/0304 P0000 T00500033
Pressure 29.50 in
Visibility 10.0 miles
Clouds Scattered Clouds 1000 ft
Mostly Cloudy 1400 ft
Overcast 3000 ft
Windchill 40 °F
Dew Point 39 °F
Humidity 98%
Rainfall 0.79 in
Snow Depth Not available.
6:33 AM 8:22 PM
Waxing Crescent, 28% visible
SPECI KSLN 010304Z 32025G30KT 10SM -RA SCT010 BKN014 OVC030 05/03 A2950 RMK AO2 PK WND 31030/0304 P0000 T00500033

Get Severe Weather Alerts

Thanks for signing up!

Be on the lookout for a verification email in your inbox.

You'll start receiving the daily forecast at 8 AM.

×

10-Day Weather Forecast

Almanac

Astronomy

Apr. 30, 2017 Rise Set
Actual Time
Civil Twilight
Nautical Twilight
Astronomical Twilight
Moon
Length of Visible Light
Length of Day
Tomorrow will be .
, % of the Moon is Illuminated

Today's Extremes

State Highs State Lows

Community

WunderPhotos

WunderBlog® & News

Nearby

Air Quality

  Air Quality AQ Index Pollutant
Not available.

Snow Depth

Station Depth Elevation

Earthquake Activity

City Distance Mag. Time & Date
Minimum magnitude displayed is 2.5.

Coastal Water Temperatures

Place Temperature

Stations

Nearby Weather Stations

Station Location Temp. Windchill Dew Point Humidity Wind Precip. Elev Updated Type
                   

Watches & Warnings

There are currently no watches in effect.